Pagina principale
METAR-TAF:

METAR-TAF

Aeroporti :

Aeroporto Internazionale di Baghdad

Baghdad, Iraq

latitudine: 33-15-45N, longitudine: 44-14-04E, altezza: 35 m

Osservazione

Il bollettino è stato emesso 10 minuti fa, alle 13:00 UTC
Vento 9 kt da nord-ovest
Temperature 15°C
Umidità 72%
Pressione 1023 hPa
Visibilità 10 km o più
Cielo coperto ad un'altezza di 3000 ft

METAR: ORBI 181300Z 31009KT 9999 OVC030 15/10 Q1023 NOSIG

Ora: 16:10 (13:10 UTC)

Previsione

Il bollettino è stato emesso 3 ore e 10 minuti fa, alle 10:00 UTC
Previsione valida dal 18 alle 12 UTC al 19 alle 12 UTC
Vento 3 kt da direzioni variabili
Visibilità: 7000 m

TAF: ORBI 181000Z 1812/1912 VRB03KT 7000 NSC

Osservazioni e previsioni meteorologiche di più di 4000 aeroporti (messaggi METAR e TAF).

Le stazioni disponibili sono rappresentate dai dischi gialli e rossi sulla carta.

Puntare il mouse per vedere il nome della stazione.

Clicca sopra per visualizzare le osservazioni e previsioni meteorologiche.

Per cambiare la mappa : fare clic sui pulsanti verdi con una croce nera per ingrandire, il pulsante verde con un trattino per diminuire, o sulla freccia verde per le mappe adiacenti.


METAR-TAF: